createdAt,value
2017-10-09T00:01:30.964Z,12.10
2017-10-09T00:03:59.218Z,12.00
2017-10-09T00:06:28.266Z,11.90
2017-10-09T00:08:56.993Z,11.90
2017-10-09T00:11:25.238Z,11.90
2017-10-09T00:13:53.516Z,11.90
2017-10-09T00:16:21.755Z,11.90
2017-10-09T00:18:50.895Z,11.80
2017-10-09T00:21:19.155Z,11.80
2017-10-09T00:23:48.183Z,11.80
2017-10-09T00:26:17.186Z,11.70
2017-10-09T00:28:45.440Z,11.70
2017-10-09T00:31:13.698Z,11.70
2017-10-09T00:33:42.711Z,11.50
2017-10-09T00:36:11.746Z,11.50
2017-10-09T00:38:40.000Z,11.40
2017-10-09T00:41:08.270Z,11.40
2017-10-09T00:43:37.307Z,11.30
2017-10-09T00:46:05.570Z,11.30
2017-10-09T00:48:33.872Z,11.30
2017-10-09T00:51:02.155Z,11.20
2017-10-09T00:53:30.400Z,11.20
2017-10-09T00:55:58.711Z,11.10
2017-10-09T00:58:26.955Z,11.10
2017-10-09T01:00:55.979Z,11.10
2017-10-09T01:03:24.272Z,11.00
2017-10-09T01:05:52.543Z,11.00
2017-10-09T01:11:00.472Z,10.90
2017-10-09T01:13:29.493Z,10.90
2017-10-09T01:15:57.761Z,10.90
2017-10-09T01:18:26.050Z,10.90
2017-10-09T01:20:54.302Z,10.80
2017-10-09T01:23:22.548Z,10.80
2017-10-09T01:25:50.846Z,10.80
2017-10-09T01:28:19.872Z,10.70
2017-10-09T01:30:48.122Z,10.70
2017-10-09T01:33:16.447Z,10.70
2017-10-09T01:35:46.364Z,10.70
2017-10-09T01:38:14.655Z,10.70
2017-10-09T01:40:42.934Z,10.70
2017-10-09T01:43:11.216Z,10.70
2017-10-09T01:45:40.313Z,10.70
2017-10-09T01:48:08.603Z,10.70
2017-10-09T01:50:37.064Z,10.70
2017-10-09T01:53:05.321Z,10.70
2017-10-09T01:55:34.358Z,10.80
2017-10-09T01:58:02.625Z,10.70
2017-10-09T02:00:30.867Z,10.80
2017-10-09T02:02:59.131Z,10.80
2017-10-09T02:05:27.372Z,10.80
2017-10-09T02:07:55.639Z,10.70
2017-10-09T02:10:23.957Z,10.80
2017-10-09T02:12:53.394Z,10.70
2017-10-09T02:15:21.643Z,10.70
2017-10-09T02:17:49.916Z,10.70
2017-10-09T02:20:18.175Z,10.70
2017-10-09T02:22:47.195Z,10.70
2017-10-09T02:25:15.443Z,10.70
2017-10-09T02:27:44.462Z,10.70
2017-10-09T02:30:12.711Z,10.70
2017-10-09T02:32:40.969Z,10.70
2017-10-09T02:35:09.313Z,10.70
2017-10-09T02:37:37.576Z,10.70
2017-10-09T02:40:05.820Z,10.60
2017-10-09T02:42:34.078Z,10.60
2017-10-09T02:45:02.328Z,10.60
2017-10-09T02:47:30.626Z,10.60
2017-10-09T02:49:58.874Z,10.60
2017-10-09T02:52:27.882Z,10.60
2017-10-09T02:54:56.183Z,10.60
2017-10-09T02:57:24.421Z,10.60
2017-10-09T02:59:53.454Z,10.50
2017-10-09T03:02:21.745Z,10.50
2017-10-09T03:04:50.028Z,10.50
2017-10-09T03:07:18.309Z,10.40
2017-10-09T03:09:46.591Z,10.40
2017-10-09T03:12:14.838Z,10.40
2017-10-09T03:14:43.911Z,10.30
2017-10-09T03:17:13.665Z,10.30
2017-10-09T03:19:41.922Z,10.30
2017-10-09T03:25:14.329Z,10.30
2017-10-09T03:30:42.040Z,10.30
2017-10-09T03:33:10.346Z,10.40
2017-10-09T03:35:38.606Z,10.40
2017-10-09T03:38:06.847Z,10.40
2017-10-09T03:40:35.106Z,10.50
2017-10-09T03:43:03.350Z,10.50
2017-10-09T03:45:31.618Z,10.50
2017-10-09T03:48:00.667Z,10.50
2017-10-09T03:50:28.927Z,10.50
2017-10-09T03:52:57.165Z,10.60
2017-10-09T03:55:25.566Z,10.60
2017-10-09T03:57:54.565Z,10.60
2017-10-09T04:00:23.697Z,10.70
2017-10-09T04:02:51.974Z,10.60
2017-10-09T04:05:20.242Z,10.60
2017-10-09T04:07:48.486Z,10.70
2017-10-09T04:10:17.514Z,10.70
2017-10-09T04:12:45.766Z,10.70
2017-10-09T04:15:14.023Z,10.70
2017-10-09T04:17:42.283Z,10.70
2017-10-09T04:20:10.567Z,10.70
2017-10-09T04:22:38.815Z,10.70
2017-10-09T04:25:07.067Z,10.70
2017-10-09T04:27:36.118Z,10.70
2017-10-09T04:30:04.364Z,10.70
2017-10-09T04:32:33.394Z,10.60
2017-10-09T04:35:01.652Z,10.60
2017-10-09T04:37:30.329Z,10.60
2017-10-09T04:39:59.337Z,10.60
2017-10-09T04:42:27.598Z,10.50
2017-10-09T04:44:56.638Z,10.60
2017-10-09T04:47:24.906Z,10.50
2017-10-09T04:49:53.149Z,10.50
2017-10-09T04:52:21.410Z,10.60
2017-10-09T04:54:49.664Z,10.50
2017-10-09T04:57:17.928Z,10.50
2017-10-09T04:59:46.175Z,10.50
2017-10-09T05:02:15.225Z,10.40
2017-10-09T05:04:43.471Z,10.40
2017-10-09T05:07:12.603Z,10.30
2017-10-09T05:09:40.851Z,10.30
2017-10-09T05:12:09.900Z,10.30
2017-10-09T05:14:38.144Z,10.20
2017-10-09T05:17:06.462Z,10.20
2017-10-09T05:19:34.709Z,10.30
2017-10-09T05:22:02.966Z,10.30
2017-10-09T05:24:32.020Z,10.20
2017-10-09T05:27:00.282Z,10.20
2017-10-09T05:29:28.522Z,10.20
2017-10-09T05:31:56.862Z,10.20
2017-10-09T05:34:25.117Z,10.20
2017-10-09T05:36:53.369Z,10.20
2017-10-09T05:39:22.418Z,10.20
2017-10-09T05:41:50.657Z,10.20
2017-10-09T05:44:19.713Z,10.20
2017-10-09T05:46:48.014Z,10.20
2017-10-09T05:49:16.359Z,10.30
2017-10-09T05:51:44.605Z,10.40
2017-10-09T05:54:13.718Z,10.40
2017-10-09T05:56:41.958Z,10.40
2017-10-09T05:59:17.365Z,10.50
2017-10-09T06:01:47.496Z,10.40
2017-10-09T06:04:15.754Z,10.50
2017-10-09T06:06:44.069Z,10.60
2017-10-09T06:09:12.332Z,10.60
2017-10-09T06:11:40.584Z,10.60
2017-10-09T06:14:09.613Z,10.60
2017-10-09T06:16:37.853Z,10.50
2017-10-09T06:19:06.892Z,10.60
2017-10-09T06:21:35.143Z,10.50
2017-10-09T06:24:03.456Z,10.60
2017-10-09T06:26:31.716Z,10.70
2017-10-09T06:29:00.023Z,10.70
2017-10-09T06:31:28.266Z,10.70
2017-10-09T06:33:57.301Z,10.80
2017-10-09T06:36:25.601Z,10.80
2017-10-09T06:38:53.876Z,10.80
2017-10-09T06:41:22.179Z,10.80
2017-10-09T06:43:50.552Z,10.80
2017-10-09T06:46:18.799Z,10.90
2017-10-09T06:48:47.066Z,10.90
2017-10-09T06:51:15.401Z,10.90
2017-10-09T06:53:43.618Z,10.90
2017-10-09T06:56:11.899Z,10.90
2017-10-09T06:58:40.207Z,10.90
2017-10-09T07:01:08.469Z,10.90
2017-10-09T07:03:36.720Z,11.00
2017-10-09T07:06:05.754Z,11.10
2017-10-09T07:08:34.009Z,11.00
2017-10-09T07:11:03.055Z,11.10
2017-10-09T07:13:31.326Z,11.10
2017-10-09T07:15:59.597Z,11.10
2017-10-09T07:18:27.891Z,11.10
2017-10-09T07:20:56.237Z,11.20
2017-10-09T07:23:24.565Z,11.20
2017-10-09T07:25:52.842Z,11.20
2017-10-09T07:28:21.104Z,11.30
2017-10-09T07:30:49.383Z,11.40
2017-10-09T07:33:17.643Z,11.40
2017-10-09T07:35:46.780Z,11.30
2017-10-09T07:38:15.172Z,11.30
2017-10-09T07:40:43.554Z,11.40
2017-10-09T07:43:11.840Z,11.40
2017-10-09T07:45:40.121Z,11.40
2017-10-09T07:48:08.431Z,11.40
2017-10-09T07:50:36.692Z,11.40
2017-10-09T07:53:04.941Z,11.50
2017-10-09T07:55:33.740Z,11.60
2017-10-09T07:58:02.385Z,11.60
2017-10-09T08:00:30.728Z,11.60
2017-10-09T08:02:59.020Z,11.70
2017-10-09T08:05:27.272Z,11.80
2017-10-09T08:07:55.549Z,11.80
2017-10-09T08:10:23.812Z,11.90
2017-10-09T08:12:52.083Z,12.00
2017-10-09T08:15:21.103Z,12.20
2017-10-09T08:17:49.453Z,12.20
2017-10-09T08:20:18.635Z,12.50
2017-10-09T08:22:46.913Z,12.50
2017-10-09T08:25:16.093Z,12.60
2017-10-09T08:27:44.350Z,12.80
2017-10-09T08:30:12.602Z,12.90
2017-10-09T08:32:41.661Z,13.20
2017-10-09T08:35:09.899Z,13.20
2017-10-09T08:37:38.202Z,13.30
2017-10-09T08:40:06.459Z,13.40
2017-10-09T08:42:34.730Z,13.40
2017-10-09T08:45:02.979Z,13.40
2017-10-09T08:47:32.057Z,13.50
2017-10-09T08:50:00.314Z,13.50
2017-10-09T08:52:28.574Z,13.30
2017-10-09T08:54:56.822Z,13.40
2017-10-09T08:57:25.100Z,13.60
2017-10-09T08:59:53.332Z,13.70
2017-10-09T09:02:21.714Z,13.80
2017-10-09T09:04:49.970Z,13.80
2017-10-09T09:07:18.257Z,13.90
2017-10-09T09:09:46.527Z,14.00
2017-10-09T09:12:14.874Z,14.10
2017-10-09T09:14:44.897Z,14.40
2017-10-09T09:17:13.937Z,14.40
2017-10-09T09:19:42.271Z,14.40
2017-10-09T09:22:10.765Z,14.50
2017-10-09T09:24:39.015Z,14.50
2017-10-09T09:27:07.271Z,14.60
2017-10-09T09:29:35.568Z,14.60
2017-10-09T09:32:03.877Z,14.70
2017-10-09T09:34:32.363Z,14.80
2017-10-09T09:37:01.774Z,14.90
2017-10-09T09:39:30.361Z,14.80
2017-10-09T09:41:59.420Z,14.70
2017-10-09T09:44:27.691Z,14.70
2017-10-09T09:46:55.945Z,14.70
2017-10-09T09:49:24.982Z,14.60
2017-10-09T09:51:53.259Z,14.60
2017-10-09T09:54:21.855Z,14.60
2017-10-09T09:56:50.095Z,14.70
2017-10-09T09:59:18.412Z,14.80
2017-10-09T10:01:46.658Z,15.00
2017-10-09T10:04:15.705Z,15.30
2017-10-09T10:06:43.951Z,15.30
2017-10-09T10:09:12.218Z,15.40
2017-10-09T10:11:40.490Z,15.40
2017-10-09T10:14:08.882Z,15.50
2017-10-09T10:16:37.302Z,15.50
2017-10-09T10:19:05.583Z,15.50
2017-10-09T10:21:33.832Z,15.50
2017-10-09T10:24:02.074Z,15.50
2017-10-09T10:26:30.357Z,15.60
2017-10-09T10:28:58.689Z,15.70
2017-10-09T10:31:26.983Z,15.90
2017-10-09T10:33:55.256Z,16.00
2017-10-09T10:36:23.572Z,16.00
2017-10-09T10:38:51.804Z,16.10
2017-10-09T10:41:20.070Z,16.10
2017-10-09T10:43:48.314Z,16.20
2017-10-09T10:46:16.682Z,16.30
2017-10-09T10:48:44.959Z,16.30
2017-10-09T10:51:13.246Z,16.40
2017-10-09T10:53:41.492Z,16.40
2017-10-09T10:56:09.760Z,16.40
2017-10-09T10:58:38.779Z,16.60
2017-10-09T11:01:07.044Z,16.50
2017-10-09T11:03:36.063Z,16.70
2017-10-09T11:06:04.461Z,16.70
2017-10-09T11:08:32.712Z,16.90
2017-10-09T11:11:01.746Z,17.20
2017-10-09T11:13:30.021Z,17.20
2017-10-09T11:15:58.275Z,17.20
2017-10-09T11:18:26.532Z,17.30
2017-10-09T11:20:55.563Z,17.10
2017-10-09T11:23:23.846Z,17.10
2017-10-09T11:25:52.102Z,17.00
2017-10-09T11:28:21.153Z,16.80
2017-10-09T11:30:49.535Z,16.80
2017-10-09T11:33:17.808Z,16.80
2017-10-09T11:35:46.084Z,16.90
2017-10-09T11:38:14.347Z,16.80
2017-10-09T11:40:42.617Z,16.90
2017-10-09T11:43:11.736Z,17.20
2017-10-09T11:45:39.987Z,17.10
2017-10-09T11:48:09.028Z,17.00
2017-10-09T11:50:37.289Z,17.00
2017-10-09T11:53:05.601Z,17.10
2017-10-09T11:55:33.870Z,17.00
2017-10-09T11:58:02.155Z,17.00
2017-10-09T12:00:30.434Z,17.10
2017-10-09T12:02:58.701Z,17.00
2017-10-09T12:05:26.956Z,17.00
2017-10-09T12:07:55.989Z,16.90
2017-10-09T12:10:24.279Z,16.90
2017-10-09T12:12:52.546Z,16.80
2017-10-09T12:15:20.793Z,16.70
2017-10-09T12:17:49.853Z,16.40
2017-10-09T12:20:18.094Z,16.40
2017-10-09T12:22:46.637Z,16.30
2017-10-09T12:25:14.907Z,16.20
2017-10-09T12:27:43.171Z,16.10
2017-10-09T12:30:11.450Z,16.00
2017-10-09T12:32:39.741Z,16.00
2017-10-09T12:35:08.026Z,16.00
2017-10-09T12:37:37.351Z,16.10
2017-10-09T12:40:05.727Z,16.10
2017-10-09T12:42:33.997Z,16.10
2017-10-09T12:45:02.261Z,16.20
2017-10-09T12:47:30.521Z,16.10
2017-10-09T12:49:58.811Z,16.20
2017-10-09T12:52:27.064Z,16.20
2017-10-09T12:54:56.203Z,16.30
2017-10-09T12:57:24.458Z,16.30
2017-10-09T12:59:52.738Z,16.30
2017-10-09T13:02:21.281Z,16.30
2017-10-09T13:04:49.634Z,16.30
2017-10-09T13:07:17.865Z,16.30
2017-10-09T13:09:46.925Z,16.00
2017-10-09T13:12:15.194Z,16.00
2017-10-09T13:14:43.482Z,15.90
2017-10-09T13:17:11.732Z,15.90
2017-10-09T13:19:39.982Z,15.80
2017-10-09T13:22:09.009Z,15.80
2017-10-09T13:24:37.310Z,15.80
2017-10-09T13:27:05.558Z,15.80
2017-10-09T13:29:34.579Z,15.70
2017-10-09T13:32:02.830Z,15.70
2017-10-09T13:34:31.863Z,15.70
2017-10-09T13:37:00.699Z,15.70
2017-10-09T13:39:28.959Z,15.70
2017-10-09T13:41:57.201Z,15.70
2017-10-09T13:44:26.228Z,15.70
2017-10-09T13:46:54.534Z,15.70
2017-10-09T13:49:22.795Z,15.70
2017-10-09T13:51:51.079Z,15.70
2017-10-09T13:54:19.361Z,15.70
2017-10-09T13:56:47.591Z,15.60
2017-10-09T13:59:16.741Z,15.60
2017-10-09T14:01:44.991Z,15.60
2017-10-09T14:04:13.230Z,15.50
2017-10-09T14:06:41.495Z,15.40
2017-10-09T14:09:09.758Z,15.30
2017-10-09T14:11:38.019Z,15.20
2017-10-09T14:14:06.367Z,15.10
2017-10-09T14:16:35.390Z,14.90
2017-10-09T14:19:03.628Z,14.90
2017-10-09T14:21:33.413Z,14.80
2017-10-09T14:24:01.654Z,14.80
2017-10-09T14:26:30.769Z,14.80
2017-10-09T14:28:59.779Z,14.80
2017-10-09T14:41:22.631Z,14.70
2017-10-09T14:43:51.839Z,14.70
2017-10-09T14:46:20.102Z,14.60
2017-10-09T14:48:48.346Z,14.70
2017-10-09T14:51:17.529Z,14.70
2017-10-09T14:53:46.379Z,14.70
2017-10-09T14:56:14.692Z,14.70
2017-10-09T14:58:42.930Z,14.80
2017-10-09T15:01:12.006Z,14.80
2017-10-09T15:03:40.259Z,14.80
2017-10-09T15:06:09.016Z,14.90
2017-10-09T15:08:37.270Z,14.90
2017-10-09T15:11:06.303Z,14.90
2017-10-09T15:13:34.547Z,14.90
2017-10-09T15:16:03.576Z,15.00
2017-10-09T15:18:31.942Z,14.90
2017-10-09T15:21:00.362Z,14.90
2017-10-09T15:23:28.615Z,15.00
2017-10-09T15:25:56.864Z,15.00
2017-10-09T15:28:25.204Z,15.00
2017-10-09T15:30:53.490Z,15.00
2017-10-09T15:33:21.843Z,14.90
2017-10-09T15:35:50.152Z,14.90
2017-10-09T15:38:18.411Z,14.80
2017-10-09T15:40:46.651Z,14.80
2017-10-09T15:43:14.917Z,14.90
2017-10-09T15:45:43.175Z,14.80
2017-10-09T15:48:12.376Z,14.80
2017-10-09T15:50:40.651Z,14.80
2017-10-09T15:53:08.946Z,14.80
2017-10-09T15:55:37.243Z,14.70
2017-10-09T15:58:05.496Z,14.70
2017-10-09T16:00:33.743Z,14.70
2017-10-09T16:03:02.766Z,14.60
2017-10-09T16:05:31.008Z,14.60
2017-10-09T16:07:59.344Z,14.60
2017-10-09T16:10:27.616Z,14.60
2017-10-09T16:12:55.910Z,14.60
2017-10-09T16:15:24.199Z,14.60
2017-10-09T16:17:52.455Z,14.60
2017-10-09T16:20:20.757Z,14.60
2017-10-09T16:22:49.819Z,14.60
2017-10-09T16:25:18.821Z,14.60
2017-10-09T16:27:47.092Z,14.50
2017-10-09T16:30:16.105Z,14.60
2017-10-09T16:32:44.364Z,14.50
2017-10-09T16:35:13.407Z,14.50
2017-10-09T16:37:41.671Z,14.50
2017-10-09T16:40:09.931Z,14.50
2017-10-09T16:42:38.963Z,14.50
2017-10-09T16:45:07.220Z,14.50
2017-10-09T16:47:35.527Z,14.40
2017-10-09T16:50:03.776Z,14.50
2017-10-09T16:52:32.807Z,14.50
2017-10-09T16:55:01.115Z,14.50
2017-10-09T16:57:29.365Z,14.50
2017-10-09T16:59:57.650Z,14.50
2017-10-09T17:02:25.942Z,14.50
2017-10-09T17:04:54.203Z,14.50
2017-10-09T17:07:22.455Z,14.50
2017-10-09T17:09:51.486Z,14.40
2017-10-09T17:12:19.747Z,14.40
2017-10-09T17:14:48.050Z,14.40
2017-10-09T17:17:16.299Z,14.40
2017-10-09T17:19:45.332Z,14.40
2017-10-09T17:22:13.593Z,14.40
2017-10-09T17:24:42.136Z,14.40
2017-10-09T17:27:10.374Z,14.40
2017-10-09T17:29:38.670Z,14.40
2017-10-09T17:32:06.919Z,14.30
2017-10-09T17:34:35.377Z,14.40
2017-10-09T17:37:03.644Z,14.30
2017-10-09T17:39:31.909Z,14.30
2017-10-09T17:42:00.162Z,14.30
2017-10-09T17:44:28.424Z,14.30
2017-10-09T17:46:56.664Z,14.30
2017-10-09T17:49:25.004Z,14.30
2017-10-09T17:51:53.262Z,14.30
2017-10-09T17:54:22.295Z,14.30
2017-10-09T17:56:50.547Z,14.30
2017-10-09T17:59:18.783Z,14.30
2017-10-09T18:01:47.054Z,14.30
2017-10-09T18:04:15.292Z,14.30
2017-10-09T18:06:43.612Z,14.30
2017-10-09T18:09:11.871Z,14.30
2017-10-09T18:11:40.185Z,14.30
2017-10-09T18:14:08.577Z,14.30
2017-10-09T18:16:37.648Z,14.30
2017-10-09T18:19:05.916Z,14.30
2017-10-09T18:21:35.021Z,14.30
2017-10-09T18:24:03.273Z,14.30
2017-10-09T18:26:32.457Z,14.40
2017-10-09T18:29:00.754Z,14.40
2017-10-09T18:31:29.771Z,14.30
2017-10-09T18:33:58.368Z,14.30
2017-10-09T18:36:26.628Z,14.30
2017-10-09T18:38:55.340Z,14.30
2017-10-09T18:41:23.602Z,14.30
2017-10-09T18:43:51.920Z,14.30
2017-10-09T18:46:20.188Z,14.30
2017-10-09T18:48:48.435Z,14.30
2017-10-09T18:51:17.463Z,14.30
2017-10-09T18:53:45.724Z,14.30
2017-10-09T18:56:14.012Z,14.30
2017-10-09T18:58:42.262Z,14.30
2017-10-09T19:01:11.288Z,14.30
2017-10-09T19:03:39.543Z,14.30
2017-10-09T19:06:07.884Z,14.30
2017-10-09T19:08:36.152Z,14.30
2017-10-09T19:11:04.406Z,14.30
2017-10-09T19:13:32.682Z,14.40
2017-10-09T19:16:01.691Z,14.40
2017-10-09T19:18:30.012Z,14.30
2017-10-09T19:20:58.275Z,14.40
2017-10-09T19:23:26.559Z,14.40
2017-10-09T19:25:54.845Z,14.40
2017-10-09T19:28:24.156Z,14.50
2017-10-09T19:30:52.403Z,14.40
2017-10-09T19:33:20.668Z,14.40
2017-10-09T19:35:49.673Z,14.50
2017-10-09T19:38:18.702Z,14.50
2017-10-09T19:40:46.961Z,14.50
2017-10-09T19:43:15.277Z,14.50
2017-10-09T19:45:43.534Z,14.50
2017-10-09T19:48:11.940Z,14.50
2017-10-09T19:50:40.188Z,14.50
2017-10-09T19:53:08.521Z,14.50
2017-10-09T19:55:36.775Z,14.50
2017-10-09T19:58:05.053Z,14.50
2017-10-09T20:00:33.301Z,14.50
2017-10-09T20:03:02.340Z,14.50
2017-10-09T20:05:30.590Z,14.50
2017-10-09T20:07:58.847Z,14.40
2017-10-09T20:10:27.883Z,14.30
2017-10-09T20:12:56.135Z,14.30
2017-10-09T20:15:25.175Z,14.40
2017-10-09T20:17:53.414Z,14.30
2017-10-09T20:20:22.464Z,14.40
2017-10-09T20:22:50.704Z,14.40
2017-10-09T20:25:19.794Z,14.40
2017-10-09T20:27:48.819Z,14.40
2017-10-09T20:30:17.123Z,14.40
2017-10-09T20:32:45.403Z,14.40
2017-10-09T20:35:13.678Z,14.40
2017-10-09T20:37:41.960Z,14.50
2017-10-09T20:40:10.271Z,14.50
2017-10-09T20:42:38.522Z,14.50
2017-10-09T20:45:06.805Z,14.50
2017-10-09T20:47:35.091Z,14.50
2017-10-09T20:50:03.351Z,14.40
2017-10-09T20:52:31.611Z,14.50
2017-10-09T20:55:00.740Z,14.40
2017-10-09T20:57:29.024Z,14.40
2017-10-09T20:59:57.314Z,14.40
2017-10-09T21:02:25.902Z,14.40
2017-10-09T21:04:54.170Z,14.30
2017-10-09T21:07:22.419Z,14.30
2017-10-09T21:09:50.694Z,14.30
2017-10-09T21:12:19.708Z,14.20
2017-10-09T21:14:47.979Z,14.20
2017-10-09T21:17:16.990Z,14.20
2017-10-09T21:19:45.288Z,14.20
2017-10-09T21:22:13.817Z,14.10
2017-10-09T21:24:43.075Z,14.10
2017-10-09T21:27:11.388Z,14.10
2017-10-09T21:29:39.750Z,14.10
2017-10-09T21:32:08.034Z,14.00
2017-10-09T21:34:36.289Z,14.00
2017-10-09T21:37:04.729Z,14.00
2017-10-09T21:39:33.029Z,14.00
2017-10-09T21:42:02.061Z,13.90
2017-10-09T21:44:30.341Z,13.90
2017-10-09T21:46:58.619Z,13.90
2017-10-09T21:49:26.906Z,13.90
2017-10-09T21:51:55.178Z,13.90
2017-10-09T21:54:23.418Z,13.80
2017-10-09T21:56:51.671Z,13.80
2017-10-09T21:59:19.914Z,13.80
2017-10-09T22:01:48.170Z,13.70
2017-10-09T22:04:17.179Z,13.70
2017-10-09T22:06:46.242Z,13.80
2017-10-09T22:09:14.493Z,13.80
2017-10-09T22:11:43.050Z,13.80
2017-10-09T22:14:12.151Z,13.80
2017-10-09T22:16:41.415Z,13.80
2017-10-09T22:19:10.409Z,13.80
2017-10-09T22:21:38.706Z,13.80
2017-10-09T22:24:07.097Z,13.80
2017-10-09T22:26:36.195Z,13.70
2017-10-09T22:29:04.496Z,13.80
2017-10-09T22:31:32.907Z,13.80
2017-10-09T22:34:02.238Z,13.80
2017-10-09T22:36:30.608Z,13.80
2017-10-09T22:38:59.035Z,13.70
2017-10-09T22:41:27.624Z,13.70
2017-10-09T22:43:56.185Z,13.70
2017-10-09T22:46:25.590Z,13.70
2017-10-09T22:48:54.797Z,13.70
2017-10-09T22:51:23.483Z,13.70
2017-10-09T22:53:52.073Z,13.70
2017-10-09T22:56:20.596Z,13.70
2017-10-09T22:58:49.141Z,13.70
2017-10-09T23:01:17.625Z,13.70
2017-10-09T23:03:45.980Z,13.70
2017-10-09T23:06:14.247Z,13.60
2017-10-09T23:08:42.774Z,13.60
2017-10-09T23:11:11.094Z,13.60
2017-10-09T23:13:39.350Z,13.50
2017-10-09T23:16:07.590Z,13.50
2017-10-09T23:18:36.883Z,13.50
2017-10-09T23:21:05.508Z,13.40
2017-10-09T23:23:33.995Z,13.40
2017-10-09T23:26:02.350Z,13.50
2017-10-09T23:28:30.760Z,13.50
2017-10-09T23:30:59.011Z,13.50
2017-10-09T23:33:27.383Z,13.50
2017-10-09T23:35:55.657Z,13.50
2017-10-09T23:38:23.967Z,13.60
2017-10-09T23:40:52.226Z,13.50
2017-10-09T23:43:20.493Z,13.40
2017-10-09T23:45:48.838Z,13.40
2017-10-09T23:48:17.078Z,13.40
2017-10-09T23:50:45.349Z,13.40
2017-10-09T23:53:13.583Z,13.40
2017-10-09T23:55:41.851Z,13.50
2017-10-09T23:58:10.094Z,13.50
